sensor_id;sensor_type;location;lat;lon;timestamp;P1;durP1;ratioP1;P2;durP2;ratioP2
2866;SDS011;1441;48.886;8.728;2023-01-15T00:00:15;0.30;;;0.30;;
2866;SDS011;1441;48.886;8.728;2023-01-15T00:02:41;0.30;;;0.30;;
2866;SDS011;1441;48.886;8.728;2023-01-15T00:05:06;0.30;;;0.30;;
2866;SDS011;1441;48.886;8.728;2023-01-15T00:07:32;0.30;;;0.30;;
2866;SDS011;1441;48.886;8.728;2023-01-15T00:09:57;0.30;;;0.30;;
2866;SDS011;1441;48.886;8.728;2023-01-15T00:12:23;0.50;;;0.30;;
2866;SDS011;1441;48.886;8.728;2023-01-15T00:14:49;1.23;;;0.30;;
2866;SDS011;1441;48.886;8.728;2023-01-15T00:17:14;0.30;;;0.30;;
2866;SDS011;1441;48.886;8.728;2023-01-15T00:19:40;0.90;;;0.43;;
2866;SDS011;1441;48.886;8.728;2023-01-15T00:22:05;0.30;;;0.30;;
2866;SDS011;1441;48.886;8.728;2023-01-15T00:24:31;0.40;;;0.40;;
2866;SDS011;1441;48.886;8.728;2023-01-15T00:27:15;2.53;;;0.40;;
2866;SDS011;1441;48.886;8.728;2023-01-15T00:29:59;1.60;;;0.60;;
2866;SDS011;1441;48.886;8.728;2023-01-15T00:32:25;0.77;;;0.60;;
2866;SDS011;1441;48.886;8.728;2023-01-15T00:34:53;0.50;;;0.43;;
2866;SDS011;1441;48.886;8.728;2023-01-15T00:37:19;0.50;;;0.40;;
2866;SDS011;1441;48.886;8.728;2023-01-15T00:39:45;0.47;;;0.47;;
2866;SDS011;1441;48.886;8.728;2023-01-15T00:42:11;0.63;;;0.40;;
2866;SDS011;1441;48.886;8.728;2023-01-15T00:44:36;0.90;;;0.63;;
2866;SDS011;1441;48.886;8.728;2023-01-15T00:47:02;0.80;;;0.57;;
2866;SDS011;1441;48.886;8.728;2023-01-15T00:49:28;0.30;;;0.30;;
2866;SDS011;1441;48.886;8.728;2023-01-15T00:51:54;0.60;;;0.30;;
2866;SDS011;1441;48.886;8.728;2023-01-15T00:54:19;3.20;;;0.30;;
2866;SDS011;1441;48.886;8.728;2023-01-15T00:56:45;0.30;;;0.30;;
2866;SDS011;1441;48.886;8.728;2023-01-15T00:59:11;0.47;;;0.30;;
2866;SDS011;1441;48.886;8.728;2023-01-15T01:01:37;0.30;;;0.30;;
2866;SDS011;1441;48.886;8.728;2023-01-15T01:04:04;0.30;;;0.30;;
2866;SDS011;1441;48.886;8.728;2023-01-15T01:06:29;0.30;;;0.30;;
2866;SDS011;1441;48.886;8.728;2023-01-15T01:08:55;0.30;;;0.30;;
2866;SDS011;1441;48.886;8.728;2023-01-15T01:11:21;0.27;;;0.27;;
2866;SDS011;1441;48.886;8.728;2023-01-15T01:13:50;3.17;;;0.30;;
2866;SDS011;1441;48.886;8.728;2023-01-15T01:16:27;0.30;;;0.30;;
2866;SDS011;1441;48.886;8.728;2023-01-15T01:18:56;0.30;;;0.30;;
2866;SDS011;1441;48.886;8.728;2023-01-15T01:21:23;1.57;;;0.30;;
2866;SDS011;1441;48.886;8.728;2023-01-15T01:23:49;1.57;;;0.30;;
2866;SDS011;1441;48.886;8.728;2023-01-15T01:26:15;0.30;;;0.30;;
2866;SDS011;1441;48.886;8.728;2023-01-15T01:28:41;0.53;;;0.30;;
2866;SDS011;1441;48.886;8.728;2023-01-15T01:31:07;0.30;;;0.30;;
2866;SDS011;1441;48.886;8.728;2023-01-15T01:33:33;0.30;;;0.30;;
2866;SDS011;1441;48.886;8.728;2023-01-15T01:35:59;1.17;;;0.30;;
2866;SDS011;1441;48.886;8.728;2023-01-15T01:38:25;0.30;;;0.30;;
2866;SDS011;1441;48.886;8.728;2023-01-15T01:40:51;0.30;;;0.30;;
2866;SDS011;1441;48.886;8.728;2023-01-15T01:43:18;0.30;;;0.30;;
2866;SDS011;1441;48.886;8.728;2023-01-15T01:45:47;0.30;;;0.30;;
2866;SDS011;1441;48.886;8.728;2023-01-15T01:48:13;0.70;;;0.30;;
2866;SDS011;1441;48.886;8.728;2023-01-15T01:50:43;0.30;;;0.30;;
2866;SDS011;1441;48.886;8.728;2023-01-15T01:53:11;0.30;;;0.30;;
2866;SDS011;1441;48.886;8.728;2023-01-15T01:55:41;0.30;;;0.30;;
2866;SDS011;1441;48.886;8.728;2023-01-15T01:58:07;0.63;;;0.30;;
2866;SDS011;1441;48.886;8.728;2023-01-15T02:00:36;0.43;;;0.43;;
2866;SDS011;1441;48.886;8.728;2023-01-15T02:03:04;0.30;;;0.30;;
2866;SDS011;1441;48.886;8.728;2023-01-15T02:05:34;0.40;;;0.40;;
2866;SDS011;1441;48.886;8.728;2023-01-15T02:08:03;0.30;;;0.30;;
2866;SDS011;1441;48.886;8.728;2023-01-15T02:10:29;0.20;;;0.20;;
2866;SDS011;1441;48.886;8.728;2023-01-15T02:15:34;0.30;;;0.30;;
2866;SDS011;1441;48.886;8.728;2023-01-15T02:18:24;0.33;;;0.30;;
2866;SDS011;1441;48.886;8.728;2023-01-15T02:21:21;0.20;;;0.20;;
2866;SDS011;1441;48.886;8.728;2023-01-15T02:26:34;0.20;;;0.20;;
2866;SDS011;1441;48.886;8.728;2023-01-15T02:29:26;0.20;;;0.20;;
2866;SDS011;1441;48.886;8.728;2023-01-15T02:31:53;0.20;;;0.20;;
2866;SDS011;1441;48.886;8.728;2023-01-15T02:34:24;0.33;;;0.30;;
2866;SDS011;1441;48.886;8.728;2023-01-15T02:37:00;0.20;;;0.20;;
2866;SDS011;1441;48.886;8.728;2023-01-15T02:39:33;0.20;;;0.20;;
2866;SDS011;1441;48.886;8.728;2023-01-15T02:42:03;0.60;;;0.30;;
2866;SDS011;1441;48.886;8.728;2023-01-15T02:44:30;1.50;;;0.87;;
2866;SDS011;1441;48.886;8.728;2023-01-15T02:46:57;1.07;;;0.30;;
2866;SDS011;1441;48.886;8.728;2023-01-15T02:49:25;1.33;;;0.20;;
2866;SDS011;1441;48.886;8.728;2023-01-15T02:51:53;0.30;;;0.30;;
2866;SDS011;1441;48.886;8.728;2023-01-15T02:54:27;0.57;;;0.20;;
2866;SDS011;1441;48.886;8.728;2023-01-15T02:56:57;0.20;;;0.20;;
2866;SDS011;1441;48.886;8.728;2023-01-15T02:59:27;0.30;;;0.30;;
2866;SDS011;1441;48.886;8.728;2023-01-15T03:02:00;0.97;;;0.30;;
2866;SDS011;1441;48.886;8.728;2023-01-15T03:04:34;0.30;;;0.30;;
2866;SDS011;1441;48.886;8.728;2023-01-15T03:07:08;0.60;;;0.30;;
2866;SDS011;1441;48.886;8.728;2023-01-15T03:09:49;0.23;;;0.23;;
2866;SDS011;1441;48.886;8.728;2023-01-15T03:12:20;0.27;;;0.27;;
2866;SDS011;1441;48.886;8.728;2023-01-15T03:15:06;0.30;;;0.30;;
2866;SDS011;1441;48.886;8.728;2023-01-15T03:17:38;0.30;;;0.30;;
2866;SDS011;1441;48.886;8.728;2023-01-15T03:20:15;0.20;;;0.20;;
2866;SDS011;1441;48.886;8.728;2023-01-15T03:22:45;0.20;;;0.20;;
2866;SDS011;1441;48.886;8.728;2023-01-15T03:25:17;0.30;;;0.30;;
2866;SDS011;1441;48.886;8.728;2023-01-15T03:27:45;0.30;;;0.30;;
2866;SDS011;1441;48.886;8.728;2023-01-15T03:30:12;0.30;;;0.30;;
2866;SDS011;1441;48.886;8.728;2023-01-15T03:32:40;0.30;;;0.30;;
2866;SDS011;1441;48.886;8.728;2023-01-15T03:35:06;0.30;;;0.30;;
2866;SDS011;1441;48.886;8.728;2023-01-15T03:37:34;0.20;;;0.20;;
2866;SDS011;1441;48.886;8.728;2023-01-15T03:40:00;0.23;;;0.23;;
2866;SDS011;1441;48.886;8.728;2023-01-15T03:42:34;0.27;;;0.27;;
2866;SDS011;1441;48.886;8.728;2023-01-15T03:45:26;0.27;;;0.27;;
2866;SDS011;1441;48.886;8.728;2023-01-15T03:48:08;0.30;;;0.30;;
2866;SDS011;1441;48.886;8.728;2023-01-15T03:53:22;0.30;;;0.30;;
2866;SDS011;1441;48.886;8.728;2023-01-15T03:58:34;0.37;;;0.30;;
2866;SDS011;1441;48.886;8.728;2023-01-15T04:01:25;0.20;;;0.20;;
2866;SDS011;1441;48.886;8.728;2023-01-15T04:03:56;1.03;;;0.30;;
2866;SDS011;1441;48.886;8.728;2023-01-15T04:06:23;0.30;;;0.30;;
2866;SDS011;1441;48.886;8.728;2023-01-15T04:08:52;0.30;;;0.30;;
2866;SDS011;1441;48.886;8.728;2023-01-15T04:11:22;0.30;;;0.30;;
2866;SDS011;1441;48.886;8.728;2023-01-15T04:13:49;0.50;;;0.30;;
2866;SDS011;1441;48.886;8.728;2023-01-15T04:16:15;0.20;;;0.20;;
2866;SDS011;1441;48.886;8.728;2023-01-15T04:18:48;1.47;;;0.30;;
2866;SDS011;1441;48.886;8.728;2023-01-15T04:21:14;0.83;;;0.30;;
2866;SDS011;1441;48.886;8.728;2023-01-15T04:23:39;0.77;;;0.40;;
2866;SDS011;1441;48.886;8.728;2023-01-15T04:26:05;0.77;;;0.30;;
2866;SDS011;1441;48.886;8.728;2023-01-15T04:28:31;0.30;;;0.30;;
2866;SDS011;1441;48.886;8.728;2023-01-15T04:30:57;0.30;;;0.30;;
2866;SDS011;1441;48.886;8.728;2023-01-15T04:33:23;1.33;;;0.30;;
2866;SDS011;1441;48.886;8.728;2023-01-15T04:35:49;0.50;;;0.30;;
2866;SDS011;1441;48.886;8.728;2023-01-15T04:38:15;0.30;;;0.30;;
2866;SDS011;1441;48.886;8.728;2023-01-15T04:40:42;0.30;;;0.30;;
2866;SDS011;1441;48.886;8.728;2023-01-15T04:43:26;0.97;;;0.30;;
2866;SDS011;1441;48.886;8.728;2023-01-15T04:46:10;0.30;;;0.30;;
2866;SDS011;1441;48.886;8.728;2023-01-15T04:48:37;1.50;;;0.50;;
2866;SDS011;1441;48.886;8.728;2023-01-15T04:51:04;1.30;;;0.80;;
2866;SDS011;1441;48.886;8.728;2023-01-15T04:53:31;0.63;;;0.63;;
2866;SDS011;1441;48.886;8.728;2023-01-15T04:56:00;1.23;;;1.07;;
2866;SDS011;1441;48.886;8.728;2023-01-15T04:58:27;0.80;;;0.80;;
2866;SDS011;1441;48.886;8.728;2023-01-15T05:00:53;1.03;;;0.53;;
2866;SDS011;1441;48.886;8.728;2023-01-15T05:03:18;0.43;;;0.43;;
2866;SDS011;1441;48.886;8.728;2023-01-15T05:05:44;0.60;;;0.60;;
2866;SDS011;1441;48.886;8.728;2023-01-15T05:08:10;0.70;;;0.70;;
2866;SDS011;1441;48.886;8.728;2023-01-15T05:10:35;1.13;;;1.13;;
2866;SDS011;1441;48.886;8.728;2023-01-15T05:13:01;1.20;;;1.20;;
2866;SDS011;1441;48.886;8.728;2023-01-15T05:15:26;1.20;;;1.10;;
2866;SDS011;1441;48.886;8.728;2023-01-15T05:17:52;0.70;;;0.70;;
2866;SDS011;1441;48.886;8.728;2023-01-15T05:20:17;0.63;;;0.63;;
2866;SDS011;1441;48.886;8.728;2023-01-15T05:22:43;0.60;;;0.57;;
2866;SDS011;1441;48.886;8.728;2023-01-15T05:25:09;1.63;;;0.70;;
2866;SDS011;1441;48.886;8.728;2023-01-15T05:27:35;0.50;;;0.50;;
2866;SDS011;1441;48.886;8.728;2023-01-15T05:30:00;0.30;;;0.30;;
2866;SDS011;1441;48.886;8.728;2023-01-15T05:32:26;0.40;;;0.40;;
2866;SDS011;1441;48.886;8.728;2023-01-15T05:34:53;0.30;;;0.30;;
2866;SDS011;1441;48.886;8.728;2023-01-15T05:37:19;0.30;;;0.30;;
2866;SDS011;1441;48.886;8.728;2023-01-15T05:39:44;0.20;;;0.20;;
2866;SDS011;1441;48.886;8.728;2023-01-15T05:42:10;0.30;;;0.30;;
2866;SDS011;1441;48.886;8.728;2023-01-15T05:44:36;0.20;;;0.20;;
2866;SDS011;1441;48.886;8.728;2023-01-15T05:47:01;0.20;;;0.20;;
2866;SDS011;1441;48.886;8.728;2023-01-15T05:49:29;0.30;;;0.30;;
2866;SDS011;1441;48.886;8.728;2023-01-15T05:51:56;0.20;;;0.20;;
2866;SDS011;1441;48.886;8.728;2023-01-15T05:54:25;0.20;;;0.20;;
2866;SDS011;1441;48.886;8.728;2023-01-15T05:56:55;0.53;;;0.37;;
2866;SDS011;1441;48.886;8.728;2023-01-15T05:59:22;0.30;;;0.30;;
2866;SDS011;1441;48.886;8.728;2023-01-15T06:01:50;0.40;;;0.30;;
2866;SDS011;1441;48.886;8.728;2023-01-15T06:04:16;1.77;;;0.30;;
2866;SDS011;1441;48.886;8.728;2023-01-15T06:06:45;0.20;;;0.20;;
2866;SDS011;1441;48.886;8.728;2023-01-15T06:09:12;1.03;;;0.30;;
2866;SDS011;1441;48.886;8.728;2023-01-15T06:11:38;0.30;;;0.30;;
2866;SDS011;1441;48.886;8.728;2023-01-15T06:14:04;0.30;;;0.30;;
2866;SDS011;1441;48.886;8.728;2023-01-15T06:16:30;0.20;;;0.20;;
2866;SDS011;1441;48.886;8.728;2023-01-15T06:19:00;0.30;;;0.30;;
2866;SDS011;1441;48.886;8.728;2023-01-15T06:21:28;0.30;;;0.30;;
2866;SDS011;1441;48.886;8.728;2023-01-15T06:23:54;0.30;;;0.30;;
2866;SDS011;1441;48.886;8.728;2023-01-15T06:26:19;0.63;;;0.30;;
2866;SDS011;1441;48.886;8.728;2023-01-15T06:28:45;0.30;;;0.30;;
2866;SDS011;1441;48.886;8.728;2023-01-15T06:31:12;0.30;;;0.30;;
2866;SDS011;1441;48.886;8.728;2023-01-15T06:33:40;0.20;;;0.20;;
2866;SDS011;1441;48.886;8.728;2023-01-15T06:36:06;0.67;;;0.40;;
2866;SDS011;1441;48.886;8.728;2023-01-15T06:38:34;0.30;;;0.30;;
2866;SDS011;1441;48.886;8.728;2023-01-15T06:41:01;0.20;;;0.20;;
2866;SDS011;1441;48.886;8.728;2023-01-15T06:43:28;0.30;;;0.30;;
2866;SDS011;1441;48.886;8.728;2023-01-15T06:46:12;0.87;;;0.30;;
2866;SDS011;1441;48.886;8.728;2023-01-15T06:48:58;0.30;;;0.30;;
2866;SDS011;1441;48.886;8.728;2023-01-15T06:51:23;2.00;;;0.30;;
2866;SDS011;1441;48.886;8.728;2023-01-15T06:53:49;0.40;;;0.40;;
2866;SDS011;1441;48.886;8.728;2023-01-15T06:56:15;0.30;;;0.30;;
2866;SDS011;1441;48.886;8.728;2023-01-15T06:58:43;0.30;;;0.30;;
2866;SDS011;1441;48.886;8.728;2023-01-15T07:01:09;0.40;;;0.40;;
2866;SDS011;1441;48.886;8.728;2023-01-15T07:03:36;0.30;;;0.30;;
2866;SDS011;1441;48.886;8.728;2023-01-15T07:06:08;0.40;;;0.40;;
2866;SDS011;1441;48.886;8.728;2023-01-15T07:08:35;0.30;;;0.30;;
2866;SDS011;1441;48.886;8.728;2023-01-15T07:11:02;0.30;;;0.30;;
2866;SDS011;1441;48.886;8.728;2023-01-15T07:13:32;0.30;;;0.30;;
2866;SDS011;1441;48.886;8.728;2023-01-15T07:16:00;0.30;;;0.30;;
2866;SDS011;1441;48.886;8.728;2023-01-15T07:18:28;0.30;;;0.30;;
2866;SDS011;1441;48.886;8.728;2023-01-15T07:20:55;0.30;;;0.30;;
2866;SDS011;1441;48.886;8.728;2023-01-15T07:23:22;0.50;;;0.30;;
2866;SDS011;1441;48.886;8.728;2023-01-15T07:25:49;0.30;;;0.30;;
2866;SDS011;1441;48.886;8.728;2023-01-15T07:28:17;0.30;;;0.30;;
2866;SDS011;1441;48.886;8.728;2023-01-15T07:30:42;0.30;;;0.30;;
2866;SDS011;1441;48.886;8.728;2023-01-15T07:33:08;0.30;;;0.30;;
2866;SDS011;1441;48.886;8.728;2023-01-15T07:35:34;0.30;;;0.30;;
2866;SDS011;1441;48.886;8.728;2023-01-15T07:38:00;0.40;;;0.40;;
2866;SDS011;1441;48.886;8.728;2023-01-15T07:40:26;0.30;;;0.30;;
2866;SDS011;1441;48.886;8.728;2023-01-15T07:42:52;0.20;;;0.20;;
2866;SDS011;1441;48.886;8.728;2023-01-15T07:45:40;0.30;;;0.30;;
2866;SDS011;1441;48.886;8.728;2023-01-15T07:48:24;0.40;;;0.40;;
2866;SDS011;1441;48.886;8.728;2023-01-15T07:51:09;0.43;;;0.40;;
2866;SDS011;1441;48.886;8.728;2023-01-15T07:53:35;0.33;;;0.33;;
2866;SDS011;1441;48.886;8.728;2023-01-15T07:56:00;0.60;;;0.40;;
2866;SDS011;1441;48.886;8.728;2023-01-15T07:58:26;4.83;;;0.40;;
2866;SDS011;1441;48.886;8.728;2023-01-15T08:00:51;0.30;;;0.30;;
2866;SDS011;1441;48.886;8.728;2023-01-15T08:03:17;0.40;;;0.30;;
2866;SDS011;1441;48.886;8.728;2023-01-15T08:05:42;0.30;;;0.30;;
2866;SDS011;1441;48.886;8.728;2023-01-15T08:08:14;0.50;;;0.30;;
2866;SDS011;1441;48.886;8.728;2023-01-15T08:10:43;0.30;;;0.30;;
2866;SDS011;1441;48.886;8.728;2023-01-15T08:13:41;0.30;;;0.30;;
2866;SDS011;1441;48.886;8.728;2023-01-15T08:16:25;0.30;;;0.30;;
2866;SDS011;1441;48.886;8.728;2023-01-15T08:18:51;0.30;;;0.30;;
2866;SDS011;1441;48.886;8.728;2023-01-15T08:21:16;0.20;;;0.20;;
2866;SDS011;1441;48.886;8.728;2023-01-15T08:23:43;2.83;;;0.40;;
2866;SDS011;1441;48.886;8.728;2023-01-15T08:26:10;0.30;;;0.30;;
2866;SDS011;1441;48.886;8.728;2023-01-15T08:28:36;0.40;;;0.40;;
2866;SDS011;1441;48.886;8.728;2023-01-15T08:31:01;0.33;;;0.33;;
2866;SDS011;1441;48.886;8.728;2023-01-15T08:33:29;0.30;;;0.30;;
2866;SDS011;1441;48.886;8.728;2023-01-15T08:35:55;0.30;;;0.30;;
2866;SDS011;1441;48.886;8.728;2023-01-15T08:38:21;0.57;;;0.30;;
2866;SDS011;1441;48.886;8.728;2023-01-15T08:40:51;0.30;;;0.30;;
2866;SDS011;1441;48.886;8.728;2023-01-15T08:43:23;0.30;;;0.30;;
2866;SDS011;1441;48.886;8.728;2023-01-15T08:45:57;0.30;;;0.30;;
2866;SDS011;1441;48.886;8.728;2023-01-15T08:48:27;0.43;;;0.30;;
2866;SDS011;1441;48.886;8.728;2023-01-15T08:50:53;0.30;;;0.30;;
2866;SDS011;1441;48.886;8.728;2023-01-15T08:53:19;0.30;;;0.30;;
2866;SDS011;1441;48.886;8.728;2023-01-15T08:55:46;0.30;;;0.30;;
2866;SDS011;1441;48.886;8.728;2023-01-15T08:58:12;0.37;;;0.30;;
2866;SDS011;1441;48.886;8.728;2023-01-15T09:00:38;0.30;;;0.30;;
2866;SDS011;1441;48.886;8.728;2023-01-15T09:03:04;0.40;;;0.30;;
2866;SDS011;1441;48.886;8.728;2023-01-15T09:05:30;0.50;;;0.40;;
2866;SDS011;1441;48.886;8.728;2023-01-15T09:07:55;0.30;;;0.30;;
2866;SDS011;1441;48.886;8.728;2023-01-15T09:10:21;0.40;;;0.40;;
2866;SDS011;1441;48.886;8.728;2023-01-15T09:12:48;0.30;;;0.30;;
2866;SDS011;1441;48.886;8.728;2023-01-15T09:15:13;0.50;;;0.30;;
2866;SDS011;1441;48.886;8.728;2023-01-15T09:17:40;0.30;;;0.30;;
2866;SDS011;1441;48.886;8.728;2023-01-15T09:20:06;0.40;;;0.40;;
2866;SDS011;1441;48.886;8.728;2023-01-15T09:22:33;0.30;;;0.30;;
2866;SDS011;1441;48.886;8.728;2023-01-15T09:24:58;0.30;;;0.30;;
2866;SDS011;1441;48.886;8.728;2023-01-15T09:27:24;0.30;;;0.30;;
2866;SDS011;1441;48.886;8.728;2023-01-15T09:29:51;0.30;;;0.30;;
2866;SDS011;1441;48.886;8.728;2023-01-15T09:32:17;0.40;;;0.40;;
2866;SDS011;1441;48.886;8.728;2023-01-15T09:34:42;0.40;;;0.30;;
2866;SDS011;1441;48.886;8.728;2023-01-15T09:37:08;0.40;;;0.40;;
2866;SDS011;1441;48.886;8.728;2023-01-15T09:39:34;0.33;;;0.33;;
2866;SDS011;1441;48.886;8.728;2023-01-15T09:47:20;1.13;;;0.40;;
2866;SDS011;1441;48.886;8.728;2023-01-15T09:49:56;0.30;;;0.30;;
2866;SDS011;1441;48.886;8.728;2023-01-15T09:55:12;0.30;;;0.30;;
2866;SDS011;1441;48.886;8.728;2023-01-15T09:57:39;0.40;;;0.40;;
2866;SDS011;1441;48.886;8.728;2023-01-15T10:00:05;0.93;;;0.40;;
2866;SDS011;1441;48.886;8.728;2023-01-15T10:02:40;0.30;;;0.30;;
2866;SDS011;1441;48.886;8.728;2023-01-15T10:07:50;0.60;;;0.40;;
2866;SDS011;1441;48.886;8.728;2023-01-15T10:10:23;0.30;;;0.30;;
2866;SDS011;1441;48.886;8.728;2023-01-15T10:12:58;0.30;;;0.30;;
2866;SDS011;1441;48.886;8.728;2023-01-15T10:15:40;0.43;;;0.30;;
2866;SDS011;1441;48.886;8.728;2023-01-15T10:18:15;0.30;;;0.30;;
2866;SDS011;1441;48.886;8.728;2023-01-15T10:23:50;0.40;;;0.40;;
2866;SDS011;1441;48.886;8.728;2023-01-15T10:26:43;0.30;;;0.30;;
2866;SDS011;1441;48.886;8.728;2023-01-15T10:29:28;0.30;;;0.30;;
2866;SDS011;1441;48.886;8.728;2023-01-15T10:32:06;0.97;;;0.40;;
2866;SDS011;1441;48.886;8.728;2023-01-15T10:43:10;0.30;;;0.30;;
2866;SDS011;1441;48.886;8.728;2023-01-15T10:45:46;0.30;;;0.30;;
2866;SDS011;1441;48.886;8.728;2023-01-15T10:50:55;0.30;;;0.30;;
2866;SDS011;1441;48.886;8.728;2023-01-15T10:53:33;0.30;;;0.30;;
2866;SDS011;1441;48.886;8.728;2023-01-15T11:01:54;3.70;;;0.40;;
2866;SDS011;1441;48.886;8.728;2023-01-15T11:04:23;0.40;;;0.40;;
2866;SDS011;1441;48.886;8.728;2023-01-15T11:06:53;0.30;;;0.30;;
2866;SDS011;1441;48.886;8.728;2023-01-15T11:09:19;0.43;;;0.40;;
2866;SDS011;1441;48.886;8.728;2023-01-15T11:11:48;1.43;;;0.40;;
2866;SDS011;1441;48.886;8.728;2023-01-15T11:14:38;1.03;;;0.40;;
2866;SDS011;1441;48.886;8.728;2023-01-15T11:17:23;0.40;;;0.40;;
2866;SDS011;1441;48.886;8.728;2023-01-15T11:20:13;0.40;;;0.40;;
2866;SDS011;1441;48.886;8.728;2023-01-15T11:22:53;0.53;;;0.40;;
2866;SDS011;1441;48.886;8.728;2023-01-15T11:25:24;0.50;;;0.50;;
2866;SDS011;1441;48.886;8.728;2023-01-15T11:27:54;0.30;;;0.30;;
2866;SDS011;1441;48.886;8.728;2023-01-15T11:30:31;0.30;;;0.30;;
2866;SDS011;1441;48.886;8.728;2023-01-15T11:33:00;0.40;;;0.40;;
2866;SDS011;1441;48.886;8.728;2023-01-15T11:35:28;0.63;;;0.40;;
2866;SDS011;1441;48.886;8.728;2023-01-15T11:38:05;0.40;;;0.40;;
2866;SDS011;1441;48.886;8.728;2023-01-15T11:40:36;0.40;;;0.40;;
2866;SDS011;1441;48.886;8.728;2023-01-15T11:43:02;1.63;;;0.40;;
2866;SDS011;1441;48.886;8.728;2023-01-15T11:45:50;1.80;;;0.40;;
2866;SDS011;1441;48.886;8.728;2023-01-15T11:48:45;0.30;;;0.30;;
2866;SDS011;1441;48.886;8.728;2023-01-15T11:51:31;0.93;;;0.30;;
2866;SDS011;1441;48.886;8.728;2023-01-15T11:54:06;0.50;;;0.50;;
2866;SDS011;1441;48.886;8.728;2023-01-15T11:56:35;1.10;;;0.70;;
2866;SDS011;1441;48.886;8.728;2023-01-15T11:59:08;0.67;;;0.40;;
2866;SDS011;1441;48.886;8.728;2023-01-15T12:01:58;2.93;;;0.70;;
2866;SDS011;1441;48.886;8.728;2023-01-15T12:04:37;0.87;;;0.50;;
2866;SDS011;1441;48.886;8.728;2023-01-15T12:07:13;0.60;;;0.40;;
2866;SDS011;1441;48.886;8.728;2023-01-15T12:10:21;0.50;;;0.30;;
2866;SDS011;1441;48.886;8.728;2023-01-15T12:15:28;0.40;;;0.40;;
2866;SDS011;1441;48.886;8.728;2023-01-15T12:18:24;5.87;;;0.90;;
2866;SDS011;1441;48.886;8.728;2023-01-15T12:21:13;4.03;;;0.63;;
2866;SDS011;1441;48.886;8.728;2023-01-15T12:26:48;1.10;;;1.00;;
2866;SDS011;1441;48.886;8.728;2023-01-15T12:29:30;2.60;;;0.50;;
2866;SDS011;1441;48.886;8.728;2023-01-15T12:32:07;2.10;;;0.50;;
2866;SDS011;1441;48.886;8.728;2023-01-15T12:34:57;1.80;;;0.63;;
2866;SDS011;1441;48.886;8.728;2023-01-15T12:37:33;4.40;;;0.90;;
2866;SDS011;1441;48.886;8.728;2023-01-15T12:42:37;0.70;;;0.60;;
2866;SDS011;1441;48.886;8.728;2023-01-15T12:45:24;4.53;;;0.60;;
2866;SDS011;1441;48.886;8.728;2023-01-15T12:55:43;3.80;;;0.90;;
2866;SDS011;1441;48.886;8.728;2023-01-15T12:58:42;0.87;;;0.40;;
2866;SDS011;1441;48.886;8.728;2023-01-15T13:04:07;3.63;;;0.60;;
2866;SDS011;1441;48.886;8.728;2023-01-15T13:06:50;0.50;;;0.50;;
2866;SDS011;1441;48.886;8.728;2023-01-15T13:12:10;0.83;;;0.40;;
2866;SDS011;1441;48.886;8.728;2023-01-15T13:14:40;2.10;;;0.50;;
2866;SDS011;1441;48.886;8.728;2023-01-15T13:17:13;0.60;;;0.50;;
2866;SDS011;1441;48.886;8.728;2023-01-15T13:19:56;2.47;;;0.70;;
2866;SDS011;1441;48.886;8.728;2023-01-15T13:22:39;4.33;;;0.50;;
2866;SDS011;1441;48.886;8.728;2023-01-15T13:25:24;2.40;;;1.30;;
2866;SDS011;1441;48.886;8.728;2023-01-15T13:31:29;3.10;;;1.33;;
2866;SDS011;1441;48.886;8.728;2023-01-15T13:39:54;2.10;;;0.60;;
2866;SDS011;1441;48.886;8.728;2023-01-15T13:42:27;0.93;;;0.60;;
2866;SDS011;1441;48.886;8.728;2023-01-15T13:45:19;2.40;;;1.10;;
2866;SDS011;1441;48.886;8.728;2023-01-15T13:48:07;5.07;;;1.30;;
2866;SDS011;1441;48.886;8.728;2023-01-15T13:50:40;1.00;;;0.50;;
2866;SDS011;1441;48.886;8.728;2023-01-15T13:55:58;1.07;;;0.60;;
2866;SDS011;1441;48.886;8.728;2023-01-15T13:58:30;4.40;;;1.43;;
2866;SDS011;1441;48.886;8.728;2023-01-15T14:01:01;1.00;;;0.53;;
2866;SDS011;1441;48.886;8.728;2023-01-15T14:03:35;2.67;;;0.50;;
2866;SDS011;1441;48.886;8.728;2023-01-15T14:06:06;0.57;;;0.57;;
2866;SDS011;1441;48.886;8.728;2023-01-15T14:08:37;1.17;;;0.50;;
2866;SDS011;1441;48.886;8.728;2023-01-15T14:25:06;2.50;;;1.10;;
2866;SDS011;1441;48.886;8.728;2023-01-15T14:27:52;4.20;;;1.60;;
2866;SDS011;1441;48.886;8.728;2023-01-15T14:30:52;1.07;;;0.73;;
2866;SDS011;1441;48.886;8.728;2023-01-15T14:33:31;7.83;;;1.33;;
2866;SDS011;1441;48.886;8.728;2023-01-15T14:36:21;3.43;;;1.50;;
2866;SDS011;1441;48.886;8.728;2023-01-15T14:38:59;1.10;;;0.80;;
2866;SDS011;1441;48.886;8.728;2023-01-15T14:41:30;1.57;;;0.90;;
2866;SDS011;1441;48.886;8.728;2023-01-15T14:44:24;5.07;;;1.47;;
2866;SDS011;1441;48.886;8.728;2023-01-15T14:46:57;3.57;;;1.40;;
2866;SDS011;1441;48.886;8.728;2023-01-15T14:49:30;4.67;;;1.77;;
2866;SDS011;1441;48.886;8.728;2023-01-15T14:52:06;1.73;;;1.10;;
2866;SDS011;1441;48.886;8.728;2023-01-15T14:54:32;4.40;;;1.77;;
2866;SDS011;1441;48.886;8.728;2023-01-15T14:56:59;2.33;;;1.00;;
2866;SDS011;1441;48.886;8.728;2023-01-15T14:59:27;4.33;;;1.80;;
2866;SDS011;1441;48.886;8.728;2023-01-15T15:02:17;2.20;;;1.00;;
2866;SDS011;1441;48.886;8.728;2023-01-15T15:04:53;4.10;;;1.17;;
2866;SDS011;1441;48.886;8.728;2023-01-15T15:07:21;1.63;;;0.90;;
2866;SDS011;1441;48.886;8.728;2023-01-15T15:09:52;1.50;;;1.00;;
2866;SDS011;1441;48.886;8.728;2023-01-15T15:12:42;3.67;;;0.80;;
2866;SDS011;1441;48.886;8.728;2023-01-15T15:18:14;1.20;;;0.50;;
2866;SDS011;1441;48.886;8.728;2023-01-15T15:20:54;2.80;;;0.50;;
2866;SDS011;1441;48.886;8.728;2023-01-15T15:23:30;4.10;;;0.63;;
2866;SDS011;1441;48.886;8.728;2023-01-15T15:26:05;1.23;;;0.53;;
2866;SDS011;1441;48.886;8.728;2023-01-15T15:28:41;2.97;;;0.60;;
2866;SDS011;1441;48.886;8.728;2023-01-15T15:31:07;2.20;;;0.50;;
2866;SDS011;1441;48.886;8.728;2023-01-15T15:33:38;1.20;;;0.53;;
2866;SDS011;1441;48.886;8.728;2023-01-15T15:36:05;1.50;;;1.00;;
2866;SDS011;1441;48.886;8.728;2023-01-15T15:38:32;0.73;;;0.70;;
2866;SDS011;1441;48.886;8.728;2023-01-15T15:40:59;10.53;;;0.70;;
2866;SDS011;1441;48.886;8.728;2023-01-15T15:46:27;2.10;;;0.70;;
2866;SDS011;1441;48.886;8.728;2023-01-15T15:49:13;0.93;;;0.90;;
2866;SDS011;1441;48.886;8.728;2023-01-15T15:51:46;2.93;;;1.10;;
2866;SDS011;1441;48.886;8.728;2023-01-15T16:01:51;2.03;;;0.80;;
2866;SDS011;1441;48.886;8.728;2023-01-15T16:04:17;1.80;;;1.13;;
2866;SDS011;1441;48.886;8.728;2023-01-15T16:06:44;0.97;;;0.70;;
2866;SDS011;1441;48.886;8.728;2023-01-15T16:09:10;1.47;;;1.37;;
2866;SDS011;1441;48.886;8.728;2023-01-15T16:11:36;0.80;;;0.60;;
2866;SDS011;1441;48.886;8.728;2023-01-15T16:14:04;2.67;;;1.67;;
2866;SDS011;1441;48.886;8.728;2023-01-15T16:16:34;6.63;;;3.57;;
2866;SDS011;1441;48.886;8.728;2023-01-15T16:19:00;6.40;;;1.60;;
2866;SDS011;1441;48.886;8.728;2023-01-15T16:21:28;1.53;;;0.70;;
2866;SDS011;1441;48.886;8.728;2023-01-15T16:23:57;5.50;;;2.03;;
2866;SDS011;1441;48.886;8.728;2023-01-15T16:26:48;6.87;;;2.77;;
2866;SDS011;1441;48.886;8.728;2023-01-15T16:29:20;1.30;;;1.20;;
2866;SDS011;1441;48.886;8.728;2023-01-15T16:31:49;0.90;;;0.60;;
2866;SDS011;1441;48.886;8.728;2023-01-15T16:34:19;1.10;;;0.80;;
2866;SDS011;1441;48.886;8.728;2023-01-15T16:36:47;1.23;;;0.60;;
2866;SDS011;1441;48.886;8.728;2023-01-15T16:39:16;1.33;;;0.90;;
2866;SDS011;1441;48.886;8.728;2023-01-15T16:41:48;1.47;;;1.13;;
2866;SDS011;1441;48.886;8.728;2023-01-15T16:44:27;5.80;;;1.33;;
2866;SDS011;1441;48.886;8.728;2023-01-15T16:47:01;2.30;;;0.90;;
2866;SDS011;1441;48.886;8.728;2023-01-15T16:49:30;2.17;;;1.00;;
2866;SDS011;1441;48.886;8.728;2023-01-15T16:51:57;2.07;;;0.60;;
2866;SDS011;1441;48.886;8.728;2023-01-15T16:56:54;2.10;;;0.60;;
2866;SDS011;1441;48.886;8.728;2023-01-15T17:01:54;8.47;;;0.60;;
2866;SDS011;1441;48.886;8.728;2023-01-15T17:04:28;0.87;;;0.60;;
2866;SDS011;1441;48.886;8.728;2023-01-15T17:07:02;2.20;;;0.60;;
2866;SDS011;1441;48.886;8.728;2023-01-15T17:09:29;3.33;;;0.87;;
2866;SDS011;1441;48.886;8.728;2023-01-15T17:11:57;2.20;;;0.90;;
2866;SDS011;1441;48.886;8.728;2023-01-15T17:14:25;1.80;;;0.60;;
2866;SDS011;1441;48.886;8.728;2023-01-15T17:19:47;1.13;;;0.60;;
2866;SDS011;1441;48.886;8.728;2023-01-15T17:22:14;0.60;;;0.60;;
2866;SDS011;1441;48.886;8.728;2023-01-15T17:24:47;4.20;;;1.10;;
2866;SDS011;1441;48.886;8.728;2023-01-15T17:27:14;3.60;;;1.20;;
2866;SDS011;1441;48.886;8.728;2023-01-15T17:29:40;1.67;;;0.70;;